createdAt,value
2022-08-03T00:00:44.736Z,16.86
2022-08-03T00:03:29.999Z,16.87
2022-08-03T00:06:15.074Z,16.84
2022-08-03T00:09:00.129Z,16.85
2022-08-03T00:11:45.164Z,16.84
2022-08-03T00:14:30.303Z,16.78
2022-08-03T00:17:15.173Z,16.76
2022-08-03T00:20:00.391Z,16.77
2022-08-03T00:22:45.192Z,16.81
2022-08-03T00:25:30.632Z,16.81
2022-08-03T00:28:15.605Z,16.79
2022-08-03T00:31:00.497Z,16.74
2022-08-03T00:33:58.761Z,16.72
2022-08-03T00:36:45.162Z,16.76
2022-08-03T00:39:30.063Z,16.83
2022-08-03T00:42:15.541Z,16.93
2022-08-03T00:45:00.668Z,17.04
2022-08-03T00:47:45.622Z,17.12
2022-08-03T00:50:34.045Z,17.25
2022-08-03T00:53:19.210Z,17.34
2022-08-03T00:56:04.450Z,17.41
2022-08-03T00:58:50.234Z,17.48
2022-08-03T01:01:35.067Z,17.57
2022-08-03T01:04:19.833Z,17.64
2022-08-03T01:07:25.185Z,17.67
2022-08-03T01:10:10.208Z,17.68
2022-08-03T01:13:07.508Z,17.66
2022-08-03T01:16:22.655Z,17.61
2022-08-03T01:19:39.800Z,17.56
2022-08-03T01:23:01.760Z,17.44
2022-08-03T01:26:03.665Z,17.36
2022-08-03T01:29:04.117Z,17.32
2022-08-03T01:32:58.899Z,17.25
2022-08-03T01:35:12.126Z,17.22
2022-08-03T01:38:09.450Z,17.19
2022-08-03T01:40:56.128Z,17.15
2022-08-03T01:43:55.388Z,17.13
2022-08-03T01:46:50.911Z,17.12
2022-08-03T01:49:40.105Z,17.09
2022-08-03T01:52:26.301Z,17.08
2022-08-03T01:55:13.077Z,17.04
2022-08-03T01:58:05.920Z,17.02
2022-08-03T02:00:57.437Z,17.00
2022-08-03T02:03:59.526Z,16.96
2022-08-03T02:07:02.856Z,16.95
2022-08-03T02:09:50.959Z,16.90
2022-08-03T02:12:37.875Z,16.89
2022-08-03T02:15:23.817Z,16.86
2022-08-03T02:18:10.966Z,16.83
2022-08-03T02:20:55.801Z,16.78
2022-08-03T02:23:40.936Z,16.76
2022-08-03T02:26:28.932Z,16.70
2022-08-03T02:29:19.641Z,16.65
2022-08-03T02:32:06.056Z,16.63
2022-08-03T02:34:55.288Z,16.57
2022-08-03T02:37:49.779Z,16.51
2022-08-03T02:40:36.179Z,16.52
2022-08-03T02:43:23.634Z,16.51
2022-08-03T02:46:10.339Z,16.49
2022-08-03T02:48:56.189Z,16.49
2022-08-03T02:51:43.150Z,16.48
2022-08-03T02:54:30.097Z,16.46
2022-08-03T02:57:16.661Z,16.49
2022-08-03T03:00:02.349Z,16.51
2022-08-03T03:02:48.284Z,16.52
2022-08-03T03:05:55.200Z,16.54
2022-08-03T03:08:41.405Z,16.56
2022-08-03T03:11:27.873Z,16.65
2022-08-03T03:14:14.117Z,16.71
2022-08-03T03:17:01.149Z,16.78
2022-08-03T03:19:49.033Z,16.85
2022-08-03T03:22:34.846Z,16.89
2022-08-03T03:25:21.174Z,16.94
2022-08-03T03:28:07.406Z,16.99
2022-08-03T03:30:52.666Z,17.03
2022-08-03T03:33:39.001Z,17.08
2022-08-03T03:36:23.670Z,17.14
2022-08-03T03:39:15.949Z,17.20
2022-08-03T03:42:02.045Z,17.27
2022-08-03T03:44:47.284Z,17.34
2022-08-03T03:47:33.810Z,17.41
2022-08-03T03:50:20.009Z,17.45
2022-08-03T03:53:04.948Z,17.47
2022-08-03T03:55:59.221Z,17.52
2022-08-03T03:58:48.159Z,17.57
2022-08-03T04:01:33.096Z,17.61
2022-08-03T04:04:36.511Z,17.67
2022-08-03T04:07:42.355Z,17.80
2022-08-03T04:10:49.616Z,17.90
2022-08-03T04:13:41.935Z,17.91
2022-08-03T04:16:31.796Z,17.94
2022-08-03T04:19:30.394Z,17.85
2022-08-03T04:22:19.078Z,17.87
2022-08-03T04:25:08.488Z,17.91
2022-08-03T04:28:30.062Z,17.97
2022-08-03T04:31:04.276Z,18.10
2022-08-03T04:33:52.389Z,18.19
2022-08-03T04:36:44.572Z,18.34
2022-08-03T04:39:31.143Z,18.40
2022-08-03T04:42:20.246Z,18.50
2022-08-03T04:45:06.379Z,18.62
2022-08-03T04:47:52.039Z,18.74
2022-08-03T04:50:37.209Z,18.84
2022-08-03T04:53:22.067Z,19.04
2022-08-03T04:56:08.206Z,19.14
2022-08-03T04:58:53.251Z,19.22
2022-08-03T05:01:40.687Z,19.30
2022-08-03T05:04:25.875Z,19.38
2022-08-03T05:07:11.580Z,19.30
2022-08-03T05:10:01.775Z,19.32
2022-08-03T05:12:50.952Z,19.32
2022-08-03T05:15:35.826Z,19.35
2022-08-03T05:18:28.202Z,19.36
2022-08-03T05:21:16.316Z,19.34
2022-08-03T05:24:01.331Z,19.41
2022-08-03T05:26:46.159Z,19.54
2022-08-03T05:29:31.677Z,19.56
2022-08-03T05:32:17.361Z,19.53
2022-08-03T05:35:57.475Z,19.50
2022-08-03T05:38:07.116Z,19.59
2022-08-03T05:40:57.332Z,19.53
2022-08-03T05:43:59.646Z,19.65
2022-08-03T05:46:44.424Z,19.79
2022-08-03T05:49:29.627Z,19.83
2022-08-03T05:52:17.543Z,19.96
2022-08-03T05:55:05.910Z,20.03
2022-08-03T05:57:50.557Z,20.06
2022-08-03T06:00:35.453Z,20.09
2022-08-03T06:03:20.415Z,20.25
2022-08-03T06:06:07.253Z,20.38
2022-08-03T06:08:52.466Z,20.53
2022-08-03T06:11:37.404Z,20.58
2022-08-03T06:14:22.351Z,20.64
2022-08-03T06:17:07.565Z,20.63
2022-08-03T06:19:53.307Z,20.56
2022-08-03T06:22:41.772Z,20.42
2022-08-03T06:25:36.031Z,20.33
2022-08-03T06:28:52.192Z,20.31
2022-08-03T06:31:33.158Z,20.26
2022-08-03T06:34:33.361Z,20.18
2022-08-03T06:37:20.220Z,20.31
2022-08-03T06:40:05.725Z,20.41
2022-08-03T06:42:50.610Z,20.45
2022-08-03T06:45:35.441Z,20.55
2022-08-03T06:48:20.450Z,20.65
2022-08-03T06:51:05.483Z,20.65
2022-08-03T06:53:51.543Z,20.73
2022-08-03T06:56:36.667Z,20.81
2022-08-03T07:00:06.059Z,20.96
2022-08-03T07:02:28.503Z,21.14
2022-08-03T07:05:13.889Z,21.36
2022-08-03T07:08:01.203Z,21.33
2022-08-03T07:10:45.920Z,21.67
2022-08-03T07:13:30.729Z,21.93
2022-08-03T07:16:16.160Z,22.10
2022-08-03T07:19:00.674Z,22.30
2022-08-03T07:21:46.586Z,22.47
2022-08-03T07:24:31.603Z,22.56
2022-08-03T07:27:16.591Z,22.89
2022-08-03T07:30:02.027Z,23.20
2022-08-03T07:32:50.682Z,23.54
2022-08-03T07:35:35.623Z,23.93
2022-08-03T07:38:21.207Z,23.81
2022-08-03T07:41:06.090Z,24.03
2022-08-03T07:43:51.540Z,23.70
2022-08-03T07:46:36.270Z,23.81
2022-08-03T07:49:21.139Z,23.88
2022-08-03T07:52:24.590Z,24.01
2022-08-03T07:55:13.870Z,23.85
2022-08-03T07:58:07.091Z,23.70
2022-08-03T08:00:52.388Z,23.77
2022-08-03T08:03:52.899Z,23.51
2022-08-03T08:06:38.409Z,23.71
2022-08-03T08:09:24.958Z,23.76
2022-08-03T08:12:15.353Z,23.69
2022-08-03T08:15:01.434Z,24.08
2022-08-03T08:17:46.380Z,24.45
2022-08-03T08:20:38.324Z,24.47
2022-08-03T08:23:37.923Z,24.37
2022-08-03T08:26:28.172Z,24.78
2022-08-03T08:29:12.952Z,25.06
2022-08-03T08:31:58.015Z,24.82
2022-08-03T08:34:43.052Z,24.82
2022-08-03T08:37:28.151Z,24.99
2022-08-03T08:40:13.320Z,24.93
2022-08-03T08:42:59.170Z,25.11
2022-08-03T08:45:44.966Z,25.05
2022-08-03T08:48:30.547Z,25.20
2022-08-03T08:51:18.739Z,25.43
2022-08-03T08:54:06.900Z,25.74
2022-08-03T08:56:53.104Z,25.92
2022-08-03T08:59:47.915Z,25.57
2022-08-03T09:02:34.473Z,25.35
2022-08-03T09:05:27.818Z,25.40
2022-08-03T09:08:25.471Z,25.55
2022-08-03T09:11:12.085Z,25.33
2022-08-03T09:13:58.224Z,25.35
2022-08-03T09:17:00.430Z,25.23
2022-08-03T09:20:05.782Z,25.04
2022-08-03T09:23:00.892Z,25.16
2022-08-03T09:25:45.940Z,25.24
2022-08-03T09:29:01.318Z,25.10
2022-08-03T09:31:46.276Z,24.62
2022-08-03T09:34:32.249Z,24.42
2022-08-03T09:37:19.252Z,24.53
2022-08-03T09:40:06.228Z,24.91
2022-08-03T09:42:57.334Z,25.38
2022-08-03T09:45:43.745Z,25.35
2022-08-03T09:48:30.945Z,25.46
2022-08-03T09:51:32.602Z,25.71
2022-08-03T09:54:29.744Z,26.32
2022-08-03T09:57:25.921Z,27.06
2022-08-03T10:00:13.192Z,27.33
2022-08-03T10:03:05.141Z,27.42
2022-08-03T10:05:50.276Z,26.88
2022-08-03T10:08:35.450Z,26.57
2022-08-03T10:11:40.408Z,26.49
2022-08-03T10:14:31.125Z,26.45
2022-08-03T10:17:16.492Z,26.32
2022-08-03T10:20:03.100Z,26.21
2022-08-03T10:22:48.267Z,26.11
2022-08-03T10:25:35.077Z,26.19
2022-08-03T10:28:21.181Z,26.19
2022-08-03T10:31:07.492Z,26.09
2022-08-03T10:33:57.491Z,26.64
2022-08-03T10:36:44.435Z,27.51
2022-08-03T10:39:30.390Z,27.83
2022-08-03T10:42:15.405Z,27.70
2022-08-03T10:45:09.108Z,27.29
2022-08-03T10:47:55.598Z,27.61
2022-08-03T10:50:42.744Z,27.35
2022-08-03T10:53:54.686Z,27.47
2022-08-03T10:57:03.399Z,27.07
2022-08-03T10:59:59.878Z,26.88
2022-08-03T11:03:05.674Z,27.01
2022-08-03T11:05:52.946Z,27.15
2022-08-03T11:08:37.832Z,28.24
2022-08-03T11:11:27.835Z,29.55
2022-08-03T11:14:20.854Z,30.17
2022-08-03T11:17:07.853Z,30.64
2022-08-03T11:19:59.432Z,30.76
2022-08-03T11:22:50.205Z,30.33
2022-08-03T11:26:14.605Z,29.39
2022-08-03T11:29:38.329Z,28.40
2022-08-03T11:32:46.857Z,28.07
2022-08-03T11:35:44.816Z,28.60
2022-08-03T11:38:30.004Z,29.44
2022-08-03T11:41:32.960Z,30.37
2022-08-03T11:44:40.381Z,29.57
2022-08-03T11:47:29.503Z,30.13
2022-08-03T11:50:14.246Z,30.58
2022-08-03T11:52:59.109Z,31.39
2022-08-03T11:55:49.152Z,31.47
2022-08-03T11:59:01.932Z,30.72
2022-08-03T12:01:39.785Z,29.10
2022-08-03T12:04:24.635Z,28.22
2022-08-03T12:07:10.013Z,28.11
2022-08-03T12:10:11.861Z,29.57
2022-08-03T12:12:58.662Z,30.81
2022-08-03T12:15:49.571Z,30.49
2022-08-03T12:18:34.919Z,29.78
2022-08-03T12:21:23.727Z,30.15
2022-08-03T12:24:08.909Z,31.71
2022-08-03T12:26:58.372Z,31.36
2022-08-03T12:29:58.582Z,31.80
2022-08-03T12:32:44.376Z,30.89
2022-08-03T12:35:29.220Z,30.49
2022-08-03T12:38:20.191Z,31.00
2022-08-03T12:41:13.102Z,30.39
2022-08-03T12:43:58.514Z,29.06
2022-08-03T12:46:47.719Z,28.93
2022-08-03T12:49:47.200Z,30.23
2022-08-03T12:52:42.665Z,31.55
2022-08-03T12:55:33.065Z,32.04
2022-08-03T12:58:38.324Z,31.73
2022-08-03T13:01:23.877Z,29.99
2022-08-03T13:04:14.343Z,29.01
2022-08-03T13:07:04.389Z,28.91
2022-08-03T13:09:54.373Z,30.19
2022-08-03T13:12:47.753Z,30.80
2022-08-03T13:15:38.551Z,31.79
2022-08-03T13:18:32.796Z,31.65
2022-08-03T13:21:20.332Z,30.88
2022-08-03T13:24:05.333Z,31.68
2022-08-03T13:26:50.929Z,31.41
2022-08-03T13:29:35.720Z,30.67
2022-08-03T13:32:21.898Z,30.05
2022-08-03T13:35:08.741Z,29.48
2022-08-03T13:37:53.693Z,28.83
2022-08-03T13:40:41.710Z,28.33
2022-08-03T13:43:26.662Z,27.86
2022-08-03T13:46:11.527Z,27.52
2022-08-03T13:48:56.604Z,27.11
2022-08-03T13:51:41.519Z,27.18
2022-08-03T13:54:26.722Z,27.35
2022-08-03T13:58:05.235Z,27.73
2022-08-03T14:00:27.164Z,29.18
2022-08-03T14:03:14.473Z,31.15
2022-08-03T14:05:59.464Z,32.32
2022-08-03T14:08:44.563Z,31.60
2022-08-03T14:12:07.132Z,30.62
2022-08-03T14:14:34.498Z,29.93
2022-08-03T14:17:20.065Z,29.34
2022-08-03T14:20:09.485Z,29.00
2022-08-03T14:23:14.530Z,28.58
2022-08-03T14:25:59.814Z,28.04
2022-08-03T14:28:44.815Z,27.79
2022-08-03T14:32:10.088Z,27.58
2022-08-03T14:34:34.918Z,27.26
2022-08-03T14:37:20.150Z,27.00
2022-08-03T14:40:05.856Z,26.94
2022-08-03T14:42:51.522Z,26.77
2022-08-03T14:45:35.985Z,26.72
2022-08-03T14:50:31.075Z,26.68
2022-08-03T14:51:26.770Z,26.50
2022-08-03T14:54:16.816Z,26.39
2022-08-03T14:57:03.518Z,26.24
2022-08-03T14:59:56.635Z,26.17
2022-08-03T15:02:42.561Z,26.07
2022-08-03T15:05:27.894Z,26.05
2022-08-03T15:08:12.648Z,26.01
2022-08-03T15:10:57.781Z,25.96
2022-08-03T15:13:42.534Z,25.90
2022-08-03T15:16:30.578Z,25.89
2022-08-03T15:20:01.594Z,25.86
2022-08-03T15:22:24.863Z,25.73
2022-08-03T15:26:28.425Z,25.83
2022-08-03T15:28:15.631Z,25.98
2022-08-03T15:31:01.176Z,26.02
2022-08-03T15:33:46.261Z,26.29
2022-08-03T15:36:32.318Z,26.95
2022-08-03T15:39:17.410Z,27.15
2022-08-03T15:42:02.015Z,26.62
2022-08-03T15:44:47.616Z,26.15
2022-08-03T15:47:32.830Z,25.83
2022-08-03T15:50:17.668Z,25.47
2022-08-03T15:53:03.716Z,25.15
2022-08-03T15:55:48.671Z,25.00
2022-08-03T15:59:03.266Z,24.83
2022-08-03T16:01:39.508Z,24.61
2022-08-03T16:04:25.276Z,24.43
2022-08-03T16:07:12.715Z,24.39
2022-08-03T16:09:57.480Z,24.28
2022-08-03T16:12:42.693Z,24.58
2022-08-03T16:15:27.773Z,24.73
2022-08-03T16:18:12.802Z,25.40
2022-08-03T16:20:58.311Z,25.35
2022-08-03T16:23:45.048Z,25.07
2022-08-03T16:26:32.744Z,24.74
2022-08-03T16:29:22.445Z,24.38
2022-08-03T16:32:09.543Z,24.14
2022-08-03T16:34:54.266Z,23.94
2022-08-03T16:37:39.791Z,23.79
2022-08-03T16:40:25.907Z,23.62
2022-08-03T16:43:18.609Z,23.53
2022-08-03T16:46:04.165Z,23.51
2022-08-03T16:48:49.143Z,23.50
2022-08-03T16:51:50.602Z,23.50
2022-08-03T16:54:35.940Z,23.47
2022-08-03T16:57:56.407Z,23.43
2022-08-03T17:00:34.058Z,23.39
2022-08-03T17:03:26.803Z,23.32
2022-08-03T17:06:12.715Z,23.22
2022-08-03T17:08:58.748Z,23.08
2022-08-03T17:11:47.216Z,22.86
2022-08-03T17:14:32.496Z,22.70
2022-08-03T17:17:30.546Z,22.52
2022-08-03T17:20:33.348Z,22.38
2022-08-03T17:23:55.292Z,22.28
2022-08-03T17:26:43.473Z,22.16
2022-08-03T17:29:34.388Z,22.02
2022-08-03T17:32:21.775Z,21.89
2022-08-03T17:35:07.822Z,21.77
2022-08-03T17:37:57.846Z,21.62
2022-08-03T17:40:49.942Z,21.50
2022-08-03T17:44:13.510Z,21.39
2022-08-03T17:46:41.588Z,21.35
2022-08-03T17:49:28.076Z,21.34
2022-08-03T17:52:35.888Z,21.36
2022-08-03T17:55:56.319Z,21.39
2022-08-03T17:58:57.882Z,21.49
2022-08-03T18:02:14.459Z,21.54
2022-08-03T18:05:16.569Z,21.59
2022-08-03T18:08:05.860Z,21.60
2022-08-03T18:11:15.771Z,21.61
2022-08-03T18:14:16.363Z,21.59
2022-08-03T18:17:05.996Z,21.57
2022-08-03T18:20:02.660Z,21.56
2022-08-03T18:22:50.452Z,21.58
2022-08-03T18:25:50.045Z,21.56
2022-08-03T18:28:38.756Z,21.54
2022-08-03T18:31:59.753Z,21.52
2022-08-03T18:34:32.513Z,21.52
2022-08-03T18:37:25.145Z,21.53
2022-08-03T18:40:10.818Z,21.50
2022-08-03T18:42:55.645Z,21.49
2022-08-03T18:45:57.401Z,21.47
2022-08-03T18:48:48.638Z,21.47
2022-08-03T18:51:43.237Z,21.48
2022-08-03T18:55:19.876Z,21.49
2022-08-03T18:58:15.695Z,21.48
2022-08-03T19:04:45.936Z,21.40
2022-08-03T19:07:36.110Z,21.37
2022-08-03T19:10:25.736Z,21.35
2022-08-03T19:13:30.952Z,21.36
2022-08-03T19:16:30.182Z,21.35
2022-08-03T19:19:17.922Z,21.34
2022-08-03T19:22:05.705Z,21.33
2022-08-03T19:24:57.282Z,21.32
2022-08-03T19:27:48.130Z,21.30
2022-08-03T19:30:39.554Z,21.26
2022-08-03T19:33:29.838Z,21.24
2022-08-03T19:36:15.334Z,21.22
2022-08-03T19:39:02.549Z,21.23
2022-08-03T19:41:51.476Z,21.22
2022-08-03T19:44:42.380Z,21.22
2022-08-03T19:47:50.853Z,21.19
2022-08-03T19:50:36.298Z,21.17
2022-08-03T19:53:35.372Z,21.17
2022-08-03T19:56:23.516Z,21.14
2022-08-03T19:59:13.236Z,21.09
2022-08-03T20:01:58.872Z,21.05
2022-08-03T20:04:44.159Z,20.99
2022-08-03T20:07:32.178Z,20.91
2022-08-03T20:10:17.338Z,20.86
2022-08-03T20:13:03.334Z,20.77
2022-08-03T20:15:48.478Z,20.69
2022-08-03T20:18:39.502Z,20.60
2022-08-03T20:21:26.720Z,20.53
2022-08-03T20:24:27.476Z,20.45
2022-08-03T20:27:19.867Z,20.33
2022-08-03T20:30:07.362Z,20.21
2022-08-03T20:32:52.591Z,20.06
2022-08-03T20:35:37.700Z,19.92
2022-08-03T20:38:27.278Z,19.81
2022-08-03T20:41:12.333Z,19.67
2022-08-03T20:43:56.984Z,19.58
2022-08-03T20:46:56.341Z,19.47
2022-08-03T20:49:46.388Z,19.38
2022-08-03T20:52:32.654Z,19.35
2022-08-03T20:55:20.152Z,19.29
2022-08-03T20:58:06.291Z,19.23
2022-08-03T21:00:51.590Z,19.19
2022-08-03T21:03:40.791Z,19.11
2022-08-03T21:06:53.667Z,19.09
2022-08-03T21:09:49.427Z,19.07
2022-08-03T21:13:10.710Z,21.45
2022-08-03T21:13:14.870Z,19.05
2022-08-03T21:16:13.000Z,18.96
2022-08-03T21:19:02.779Z,18.98
2022-08-03T21:21:49.612Z,18.98
2022-08-03T21:24:39.971Z,19.00
2022-08-03T21:27:25.826Z,19.03
2022-08-03T21:30:11.645Z,19.04
2022-08-03T21:32:57.701Z,19.01
2022-08-03T21:35:46.356Z,18.99
2022-08-03T21:38:32.136Z,18.94
2022-08-03T21:41:17.016Z,18.95
2022-08-03T21:44:02.755Z,19.00
2022-08-03T21:46:52.352Z,18.95
2022-08-03T21:49:51.720Z,18.90
2022-08-03T21:52:49.109Z,18.86
2022-08-03T21:55:42.363Z,18.86
2022-08-03T21:58:32.048Z,18.88
2022-08-03T22:01:21.330Z,18.92
2022-08-03T22:04:06.963Z,18.92
2022-08-03T22:06:52.253Z,18.90
2022-08-03T22:09:37.353Z,18.79
2022-08-03T22:12:24.166Z,18.76
2022-08-03T22:15:11.829Z,18.73
2022-08-03T22:17:58.502Z,18.77
2022-08-03T22:23:57.682Z,18.93
2022-08-03T22:27:02.555Z,18.98
2022-08-03T22:29:48.741Z,19.00
2022-08-03T22:32:33.551Z,18.97
2022-08-03T22:35:20.674Z,18.96
2022-08-03T22:38:07.824Z,18.89
2022-08-03T22:40:54.310Z,18.78
2022-08-03T22:43:40.372Z,18.73
2022-08-03T22:46:26.926Z,18.67
2022-08-03T22:49:12.937Z,18.61
2022-08-03T22:51:58.668Z,18.64
2022-08-03T22:54:45.782Z,18.66
2022-08-03T22:57:34.702Z,18.73
2022-08-03T23:00:19.246Z,18.80
2022-08-03T23:03:05.699Z,18.82
2022-08-03T23:06:00.278Z,18.88
2022-08-03T23:08:49.773Z,18.88
2022-08-03T23:11:45.270Z,18.86
2022-08-03T23:14:37.894Z,18.81
2022-08-03T23:17:23.745Z,18.77
2022-08-03T23:20:09.570Z,18.68
2022-08-03T23:22:56.911Z,18.59
2022-08-03T23:25:42.424Z,18.47
2022-08-03T23:28:30.523Z,18.37
2022-08-03T23:31:17.869Z,18.27
2022-08-03T23:34:21.699Z,18.16
2022-08-03T23:37:06.232Z,18.10
2022-08-03T23:39:52.210Z,18.06
2022-08-03T23:42:38.388Z,18.00
2022-08-03T23:45:27.001Z,17.93
2022-08-03T23:48:11.974Z,17.85
2022-08-03T23:50:59.513Z,17.80
2022-08-03T23:53:53.526Z,17.75
2022-08-03T23:56:47.114Z,17.73
2022-08-03T23:59:55.394Z,17.65
